createdAt,value
2022-12-29T00:00:00.711Z,-2.1
2022-12-29T00:15:00.726Z,-2.2
2022-12-29T00:30:00.745Z,-2.3
2022-12-29T00:45:00.748Z,-2.4
2022-12-29T01:00:00.766Z,-2.6
2022-12-29T01:15:00.685Z,-2.6
2022-12-29T01:30:00.714Z,-2.6
2022-12-29T01:45:00.748Z,-2.6
2022-12-29T02:00:00.742Z,-2.7
2022-12-29T02:15:00.684Z,-2.8
2022-12-29T02:30:00.691Z,-2.9
2022-12-29T02:45:00.771Z,-2.9
2022-12-29T03:00:00.665Z,-2.9
2022-12-29T03:15:00.654Z,-3.0
2022-12-29T03:30:00.709Z,-2.9
2022-12-29T03:45:00.699Z,-2.9
2022-12-29T04:00:01.046Z,-3.0
2022-12-29T04:15:00.639Z,-3.1
2022-12-29T04:30:00.696Z,-3.2
2022-12-29T04:45:00.740Z,-3.1
2022-12-29T05:00:00.685Z,-3.1
2022-12-29T05:15:00.660Z,-3.1
2022-12-29T05:30:00.739Z,-3.2
2022-12-29T05:45:00.727Z,-3.3
2022-12-29T06:00:00.687Z,-3.3
2022-12-29T06:15:00.665Z,-3.4
2022-12-29T06:30:00.651Z,-3.4
2022-12-29T06:45:00.667Z,-3.5
2022-12-29T07:00:00.727Z,-3.5
2022-12-29T07:15:00.698Z,-3.5
2022-12-29T07:30:00.702Z,-3.5
2022-12-29T07:45:00.680Z,-3.4
2022-12-29T08:00:00.705Z,-3.1
2022-12-29T08:15:00.694Z,-2.5
2022-12-29T08:30:00.671Z,-1.9
2022-12-29T08:45:00.658Z,-1.0
2022-12-29T09:00:00.710Z,-0.1
2022-12-29T09:15:00.713Z,0.5
2022-12-29T09:30:00.771Z,1.3
2022-12-29T09:45:00.664Z,1.9
2022-12-29T10:00:00.661Z,2.3
2022-12-29T10:15:00.699Z,3.0
2022-12-29T10:30:00.677Z,3.8
2022-12-29T10:45:00.739Z,4.5
2022-12-29T11:00:00.707Z,5.3
2022-12-29T11:15:00.695Z,5.9
2022-12-29T11:30:00.712Z,6.6
2022-12-29T11:45:00.670Z,7.4
2022-12-29T12:00:00.780Z,8.2
2022-12-29T12:15:00.675Z,8.9
2022-12-29T12:30:00.700Z,9.2
2022-12-29T12:45:00.693Z,9.3
2022-12-29T13:00:00.691Z,9.5
2022-12-29T13:15:00.799Z,9.4
2022-12-29T13:30:00.707Z,9.3
2022-12-29T13:45:00.673Z,9.1
2022-12-29T14:00:00.679Z,8.8
2022-12-29T14:15:00.701Z,8.3
2022-12-29T14:30:00.729Z,7.8
2022-12-29T14:45:00.657Z,7.1
2022-12-29T15:00:00.651Z,6.3
2022-12-29T15:30:00.526Z,5.1
2022-12-29T15:45:10.058Z,4.5
2022-12-29T16:00:00.531Z,4.1
2022-12-29T16:15:00.534Z,3.8
2022-12-29T16:30:00.513Z,3.3
2022-12-29T16:45:00.556Z,2.8
2022-12-29T17:00:00.723Z,2.4
2022-12-29T17:15:00.548Z,2.1
2022-12-29T17:30:00.547Z,1.7
2022-12-29T17:45:00.541Z,1.3
2022-12-29T18:00:00.552Z,1.0
2022-12-29T18:15:00.625Z,0.7
2022-12-29T18:30:00.544Z,0.5
2022-12-29T18:45:00.551Z,0.4
2022-12-29T19:00:00.535Z,0.3
2022-12-29T19:15:00.730Z,0.2
2022-12-29T19:30:00.597Z,0.0
2022-12-29T19:45:00.731Z,0.0
2022-12-29T20:00:00.723Z,-0.2
2022-12-29T20:15:00.850Z,-0.4
2022-12-29T20:30:00.732Z,-0.6
2022-12-29T20:45:00.748Z,-0.7
2022-12-29T21:00:00.741Z,-0.8
2022-12-29T21:15:00.858Z,-0.9
2022-12-29T21:30:00.715Z,-1.0
2022-12-29T21:45:00.913Z,-1.0
2022-12-29T22:00:00.755Z,-1.1
2022-12-29T22:15:00.759Z,-1.1
2022-12-29T22:30:00.738Z,-1.0
2022-12-29T22:45:00.715Z,-0.9
2022-12-29T23:00:00.721Z,-0.8
2022-12-29T23:15:00.749Z,-0.8
2022-12-29T23:30:00.704Z,-0.8
2022-12-29T23:45:00.703Z,-0.8
